Time;durP1;ratioP1;P1;durP2;ratioP2;P2;SDS_P1;SDS_P2;PMS_P1;PMS_P2;Temp;Humidity;BMP_temperature;BMP_pressure;BME280_temperature;BME280_humidity;BME280_pressure;Samples;Min_cycle;Max_cycle;Signal;HPM_P1;HPM_P2
2021/11/08 00:00:16;;;;;;;6.32;1.65;;;8.60;99.90;;;;;;4889355;29;20052;-81
2021/11/08 00:02:45;;;;;;;5.93;1.30;;;8.60;99.90;;;;;;4893442;29;20022;-81
2021/11/08 00:05:11;;;;;;;6.20;1.40;;;8.60;99.90;;;;;;4887008;29;20028;-81
2021/11/08 00:07:36;;;;;;;5.78;1.48;;;8.60;99.90;;;;;;4898181;29;20065;-81
2021/11/08 00:10:05;;;;;;;9.15;1.95;;;8.50;99.90;;;;;;4904683;29;20050;-81
2021/11/08 00:12:31;;;;;;;17.27;1.73;;;8.60;99.90;;;;;;4905510;29;20033;-81
2021/11/08 00:14:58;;;;;;;12.85;2.33;;;8.50;99.90;;;;;;4905093;29;20037;-80
2021/11/08 00:17:45;;;;;;;8.70;1.37;;;8.50;99.90;;;;;;4884920;29;20022;-80
2021/11/08 00:20:26;;;;;;;10.48;1.80;;;8.50;99.90;;;;;;4886059;29;20033;-80
2021/11/08 00:22:51;;;;;;;8.38;1.42;;;8.50;99.90;;;;;;4882736;29;20149;-79
2021/11/08 00:25:18;;;;;;;12.18;2.33;;;8.50;99.90;;;;;;4901427;29;20109;-80
2021/11/08 00:27:43;;;;;;;11.13;1.77;;;8.60;99.90;;;;;;4877689;29;20137;-81
2021/11/08 00:30:10;;;;;;;15.32;2.28;;;8.60;99.90;;;;;;4877334;29;20048;-80
2021/11/08 00:32:42;;;;;;;8.68;1.67;;;8.50;99.90;;;;;;4889707;29;20478;-81
2021/11/08 00:35:15;;;;;;;9.15;1.85;;;8.50;99.90;;;;;;4866243;29;20037;-82
2021/11/08 00:37:41;;;;;;;16.00;3.00;;;8.60;99.90;;;;;;4859538;29;20042;-80
2021/11/08 00:40:08;;;;;;;10.15;2.08;;;8.50;99.90;;;;;;4857239;29;20031;-78
2021/11/08 00:42:34;;;;;;;14.05;2.30;;;8.50;99.90;;;;;;4855206;29;20033;-79
2021/11/08 00:44:59;;;;;;;14.60;2.47;;;8.50;99.90;;;;;;4856929;29;20112;-79
2021/11/08 00:47:25;;;;;;;7.30;1.85;;;8.40;99.90;;;;;;4860448;29;20148;-79
2021/11/08 00:49:52;;;;;;;12.95;2.45;;;8.40;99.90;;;;;;4859647;29;20025;-79
2021/11/08 00:52:18;;;;;;;7.63;2.37;;;8.40;99.90;;;;;;4860086;29;20448;-81
2021/11/08 00:54:44;;;;;;;21.58;2.20;;;8.30;99.90;;;;;;4857325;29;20069;-80
2021/11/08 00:57:12;;;;;;;10.10;2.08;;;8.30;99.90;;;;;;4849547;29;20064;-81
2021/11/08 00:59:38;;;;;;;13.35;2.00;;;8.30;99.90;;;;;;4865724;29;20040;-80
2021/11/08 01:02:04;;;;;;;8.70;1.40;;;8.20;99.90;;;;;;4849387;29;20112;-82
2021/11/08 01:04:30;;;;;;;11.35;2.25;;;8.20;99.90;;;;;;4849757;29;20033;-80
2021/11/08 01:07:00;;;;;;;13.65;2.25;;;8.20;99.90;;;;;;4851446;29;20044;-80
2021/11/08 01:09:28;;;;;;;9.52;2.00;;;8.10;99.90;;;;;;4851098;29;20480;-82
2021/11/08 01:11:54;;;;;;;6.68;2.10;;;8.10;99.90;;;;;;4851459;29;20468;-81
2021/11/08 01:14:20;;;;;;;12.82;2.20;;;8.10;99.90;;;;;;4848284;29;20499;-81
2021/11/08 01:16:46;;;;;;;13.50;1.92;;;8.10;99.90;;;;;;4851116;29;20036;-82
2021/11/08 01:19:13;;;;;;;12.05;2.10;;;8.10;99.90;;;;;;4850997;29;20032;-82
2021/11/08 01:21:39;;;;;;;17.02;2.33;;;8.00;99.90;;;;;;4852391;29;20036;-80
2021/11/08 01:24:05;;;;;;;5.28;1.80;;;8.00;99.90;;;;;;4846812;29;20480;-80
2021/11/08 01:26:32;;;;;;;5.07;1.50;;;8.00;99.90;;;;;;4846336;29;20527;-81
2021/11/08 01:28:58;;;;;;;7.30;2.43;;;8.00;99.90;;;;;;4853042;29;20412;-81
2021/11/08 01:31:24;;;;;;;10.00;1.80;;;8.00;99.90;;;;;;4847805;29;20038;-81
2021/11/08 01:33:52;;;;;;;7.75;2.08;;;7.90;99.90;;;;;;4849277;29;20049;-81
2021/11/08 01:36:24;;;;;;;10.63;2.03;;;7.90;99.90;;;;;;4856569;29;20117;-81
2021/11/08 01:38:54;;;;;;;8.30;1.63;;;7.90;99.90;;;;;;4860792;29;20073;-81
2021/11/08 01:41:22;;;;;;;9.80;1.75;;;7.80;99.90;;;;;;4858930;29;20037;-81
2021/11/08 01:43:48;;;;;;;13.82;1.73;;;7.70;99.90;;;;;;4858264;29;20029;-82
2021/11/08 01:46:15;;;;;;;7.80;1.67;;;7.70;99.90;;;;;;4858533;29;20080;-82
2021/11/08 01:48:41;;;;;;;10.82;2.80;;;7.70;99.90;;;;;;4856704;29;20613;-82
2021/11/08 01:51:08;;;;;;;3.67;1.75;;;7.70;99.90;;;;;;4858485;29;20034;-81
2021/11/08 01:53:34;;;;;;;3.22;1.35;;;7.60;99.90;;;;;;4858547;29;20037;-81
2021/11/08 01:56:01;;;;;;;10.02;2.38;;;7.60;99.90;;;;;;4857592;29;20401;-81
2021/11/08 01:58:29;;;;;;;12.23;1.70;;;7.50;99.90;;;;;;4859135;29;20022;-81
2021/11/08 02:00:56;;;;;;;7.70;1.45;;;7.50;99.90;;;;;;4865314;29;20045;-81
2021/11/08 02:03:22;;;;;;;4.05;1.90;;;7.50;99.90;;;;;;4858299;29;20037;-81
2021/11/08 02:05:48;;;;;;;2.78;1.48;;;7.50;99.90;;;;;;4858431;29;20038;-81
2021/11/08 02:08:16;;;;;;;6.53;1.92;;;7.50;99.90;;;;;;4858087;29;20120;-81
2021/11/08 02:10:42;;;;;;;13.37;2.30;;;7.50;99.90;;;;;;4853826;29;20030;-80
2021/11/08 02:13:08;;;;;;;7.22;1.77;;;7.40;99.90;;;;;;4858362;29;20028;-80
2021/11/08 02:15:36;;;;;;;14.35;1.85;;;7.40;99.90;;;;;;4857968;29;20427;-80
2021/11/08 02:18:05;;;;;;;8.95;2.22;;;7.30;99.90;;;;;;4856978;29;20045;-81
2021/11/08 02:20:32;;;;;;;4.65;1.70;;;7.30;99.90;;;;;;4858965;29;20632;-81
2021/11/08 02:23:05;;;;;;;8.35;1.80;;;7.30;99.90;;;;;;4857350;29;20030;-81
2021/11/08 02:25:34;;;;;;;16.02;1.70;;;7.30;99.90;;;;;;4856666;29;20493;-81
2021/11/08 02:27:59;;;;;;;7.10;1.60;;;7.20;99.90;;;;;;4858642;29;20030;-80
2021/11/08 02:30:28;;;;;;;4.45;2.08;;;7.20;99.90;;;;;;4858965;29;20364;-80
2021/11/08 02:32:55;;;;;;;7.50;1.83;;;7.20;99.90;;;;;;4856912;29;20062;-80
2021/11/08 02:35:22;;;;;;;11.20;1.90;;;7.20;99.90;;;;;;4874336;29;20038;-80
2021/11/08 02:37:49;;;;;;;7.25;1.10;;;7.20;99.90;;;;;;4853159;29;20502;-80
2021/11/08 02:40:22;;;;;;;5.53;1.88;;;7.20;99.90;;;;;;4850869;29;20050;-80
2021/11/08 02:42:50;;;;;;;7.00;1.67;;;7.10;99.90;;;;;;4849752;29;20040;-79
2021/11/08 02:45:21;;;;;;;10.05;2.15;;;7.10;99.90;;;;;;4855222;29;20032;-81
2021/11/08 02:47:49;;;;;;;8.77;1.73;;;7.20;99.90;;;;;;4855486;29;20061;-79
2021/11/08 02:50:16;;;;;;;7.35;1.55;;;7.20;99.90;;;;;;4854444;29;20036;-81
2021/11/08 02:52:45;;;;;;;4.70;1.33;;;7.20;99.90;;;;;;4849269;29;20061;-80
2021/11/08 02:55:11;;;;;;;10.90;1.67;;;7.20;99.90;;;;;;4851741;29;20057;-81
2021/11/08 02:57:37;;;;;;;10.10;2.17;;;7.20;99.90;;;;;;4860878;29;20446;-81
2021/11/08 03:00:10;;;;;;;10.32;1.48;;;7.10;99.90;;;;;;4856198;29;20483;-81
2021/11/08 03:02:38;;;;;;;10.45;1.40;;;7.20;99.90;;;;;;4850264;29;20503;-81
2021/11/08 03:05:06;;;;;;;7.50;1.17;;;7.20;99.90;;;;;;4854814;29;20026;-81
2021/11/08 03:07:37;;;;;;;11.27;1.35;;;7.30;99.90;;;;;;4849633;29;20410;-81
2021/11/08 03:10:09;;;;;;;3.75;1.50;;;7.30;99.90;;;;;;4851752;29;20033;-81
2021/11/08 03:12:37;;;;;;;7.38;1.33;;;7.40;99.90;;;;;;4854041;29;20033;-81
2021/11/08 03:15:27;;;;;;;13.05;2.17;;;7.40;99.90;;;;;;4851376;29;20021;-81
2021/11/08 03:18:00;;;;;;;9.48;1.52;;;7.50;99.90;;;;;;4854802;29;20030;-81
2021/11/08 03:20:26;;;;;;;13.95;1.75;;;7.50;99.90;;;;;;4857606;29;20036;-81
2021/11/08 03:22:56;;;;;;;7.72;1.60;;;7.60;99.90;;;;;;4850167;29;20038;-80
2021/11/08 03:25:34;;;;;;;6.55;1.42;;;7.70;99.90;;;;;;4850918;29;20046;-80
2021/11/08 03:28:01;;;;;;;7.18;2.55;;;7.70;99.90;;;;;;4851082;29;20082;-80
2021/11/08 03:30:38;;;;;;;8.48;1.58;;;7.80;99.90;;;;;;4850804;29;20089;-80
2021/11/08 03:33:05;;;;;;;5.60;1.30;;;7.70;99.90;;;;;;4852746;29;20539;-79
2021/11/08 03:35:33;;;;;;;8.13;1.40;;;7.70;99.90;;;;;;4853979;29;20073;-80
2021/11/08 03:38:00;;;;;;;6.20;1.77;;;7.80;99.90;;;;;;4859171;29;20029;-80
2021/11/08 03:40:32;;;;;;;6.38;1.50;;;7.80;99.90;;;;;;4859316;29;20017;-80
2021/11/08 03:43:01;;;;;;;12.35;1.45;;;7.70;99.90;;;;;;4860857;29;20129;-80
2021/11/08 03:45:27;;;;;;;;;;;7.70;99.90;;;;;;4859615;29;20033;-80
2021/11/08 03:47:54;;;;;;;15.40;3.03;;;7.60;99.90;;;;;;4858942;29;20382;-81
2021/11/08 03:50:21;;;;;;;11.20;1.95;;;7.60;99.90;;;;;;4861028;29;20054;-81
2021/11/08 03:52:47;;;;;;;5.93;1.97;;;7.60;99.90;;;;;;4861024;29;20022;-80
2021/11/08 03:55:13;;;;;;;10.75;1.42;;;7.50;99.90;;;;;;4860320;29;20365;-81
2021/11/08 03:57:39;;;;;;;15.20;1.58;;;7.40;99.90;;;;;;4859317;29;20377;-80
2021/11/08 04:00:26;;;;;;;8.27;1.42;;;7.40;99.90;;;;;;4860288;29;20030;-81
2021/11/08 04:02:55;;;;;;;13.05;1.45;;;7.40;99.90;;;;;;4859543;29;20033;-81
2021/11/08 04:05:22;;;;;;;17.92;2.35;;;7.40;99.90;;;;;;4859408;29;20090;-81
2021/11/08 04:07:49;;;;;;;11.20;2.30;;;7.50;99.90;;;;;;4858845;29;20819;-81
2021/11/08 04:10:17;;;;;;;10.80;2.20;;;7.50;99.90;;;;;;4859207;29;20030;-81
2021/11/08 04:12:43;;;;;;;;;;;7.50;99.90;;;;;;4857670;29;20097;-81
2021/11/08 04:15:13;;;;;;;17.05;1.48;;;7.40;99.90;;;;;;4865471;29;19920;-81
2021/11/08 04:17:46;;;;;;;12.27;2.17;;;7.40;99.90;;;;;;4859372;29;20088;-81
2021/11/08 04:20:23;;;;;;;8.60;1.83;;;7.40;99.90;;;;;;4871453;29;20498;-81
2021/11/08 04:22:51;;;;;;;15.07;2.40;;;7.30;99.90;;;;;;4860114;29;20124;-81
2021/11/08 04:25:19;;;;;;;6.95;1.83;;;7.30;99.90;;;;;;4858778;29;20072;-80
2021/11/08 04:27:46;;;;;;;11.63;1.80;;;7.40;99.90;;;;;;4859058;29;20061;-79
2021/11/08 04:30:13;;;;;;;15.50;2.05;;;7.40;99.90;;;;;;4859669;29;20120;-80
2021/11/08 04:35:18;;;;;;;5.43;1.60;;;7.50;99.90;;;;;;4860922;29;20081;-82
2021/11/08 04:38:29;;;;;;;6.60;1.90;;;7.60;99.90;;;;;;4870147;29;20037;-80
2021/11/08 04:41:26;;;;;;;14.63;1.85;;;7.60;99.90;;;;;;4871007;29;20037;-80
2021/11/08 04:46:09;;;;;;;7.97;1.63;;;7.80;99.90;;;;;;4866651;29;20132;-82
2021/11/08 04:51:07;;;;;;;17.20;1.85;;;7.80;99.90;;;;;;4870335;29;20059;-82
2021/11/08 04:53:52;;;;;;;1.88;1.45;;;7.80;99.90;;;;;;4860944;29;20562;-82
2021/11/08 05:21:21;;;;;;;4.53;1.40;;;7.80;99.90;;;;;;4868132;29;20043;-82
2021/11/08 05:30:04;;;;;;;14.82;2.17;;;7.70;99.90;;;;;;4866647;29;20346;-83
2021/11/08 05:31:54;;;;;;;10.43;2.20;;;7.60;99.90;;;;;;4867119;29;20044;-83
2021/11/08 05:34:20;;;;;;;7.25;2.33;;;7.70;99.90;;;;;;4859548;29;20033;-82
2021/11/08 05:36:46;;;;;;;9.63;2.17;;;7.60;99.90;;;;;;4859560;29;20037;-83
2021/11/08 05:39:13;;;;;;;4.82;1.63;;;7.60;99.90;;;;;;4877605;29;20036;-82
2021/11/08 05:41:40;;;;;;;9.40;1.90;;;7.50;99.90;;;;;;4860206;29;20613;-84
2021/11/08 05:44:06;;;;;;;10.20;2.20;;;7.50;99.90;;;;;;4860692;29;20060;-84
2021/11/08 05:46:34;;;;;;;11.70;1.90;;;7.50;99.90;;;;;;4866756;29;20096;-83
2021/11/08 05:49:00;;;;;;;13.45;3.17;;;7.50;99.90;;;;;;4861324;29;20032;-85
2021/11/08 05:51:27;;;;;;;12.82;3.22;;;7.50;99.90;;;;;;4874212;29;20493;-85
2021/11/08 05:53:53;;;;;;;7.40;2.33;;;7.50;99.90;;;;;;4861581;29;20483;-82
2021/11/08 06:50:13;;;;;;;8.05;2.03;;;8.00;99.90;;;;;;4879063;29;20497;-82
2021/11/08 06:52:39;;;;;;;9.73;2.28;;;8.00;99.90;;;;;;4864020;29;20538;-81
2021/11/08 06:55:06;;;;;;;9.98;2.45;;;8.00;99.90;;;;;;4863635;29;20041;-81
2021/11/08 06:57:44;;;;;;;8.23;1.92;;;8.00;99.90;;;;;;4879500;29;20045;-81
2021/11/08 07:00:10;;;;;;;10.43;2.30;;;8.00;99.90;;;;;;4870698;29;20033;-83
2021/11/08 07:02:36;;;;;;;7.60;2.25;;;8.10;99.90;;;;;;4880532;29;20451;-83
2021/11/08 07:05:01;;;;;;;20.02;3.17;;;8.10;99.90;;;;;;4861664;29;20071;-83
2021/11/08 07:07:28;;;;;;;14.65;2.15;;;8.20;99.90;;;;;;4877702;29;20396;-83
2021/11/08 07:09:54;;;;;;;11.00;2.50;;;8.20;99.90;;;;;;4872831;29;20077;-83
2021/11/08 07:12:20;;;;;;;10.73;2.33;;;8.20;99.90;;;;;;4863631;29;20045;-82
2021/11/08 07:14:45;;;;;;;25.60;2.47;;;8.30;99.90;;;;;;4874303;29;20033;-81
2021/11/08 07:17:11;;;;;;;4.38;1.63;;;8.30;99.90;;;;;;4862796;29;20056;-85
2021/11/08 07:19:37;;;;;;;17.67;1.85;;;8.30;99.90;;;;;;4861870;29;20029;-84
2021/11/08 07:22:03;;;;;;;8.00;2.50;;;8.40;99.90;;;;;;4861955;29;20070;-82
2021/11/08 07:24:29;;;;;;;23.48;2.83;;;8.40;99.90;;;;;;4861019;29;20444;-84
2021/11/08 07:26:55;;;;;;;9.55;2.13;;;8.40;99.90;;;;;;4861560;29;20065;-80
2021/11/08 07:29:22;;;;;;;12.35;2.20;;;8.40;99.90;;;;;;4863036;29;20037;-80
2021/11/08 07:31:48;;;;;;;16.83;3.57;;;8.50;99.90;;;;;;4874124;29;20022;-81
2021/11/08 07:34:14;;;;;;;12.57;2.25;;;8.60;99.90;;;;;;4870278;29;20021;-81
2021/11/08 07:36:40;;;;;;;6.85;1.75;;;8.60;99.90;;;;;;4867039;29;20113;-81
2021/11/08 07:39:07;;;;;;;8.57;2.00;;;8.70;99.90;;;;;;4860398;29;20034;-80
2021/11/08 07:41:33;;;;;;;4.88;2.20;;;8.70;99.90;;;;;;4868532;29;20033;-79
2021/11/08 07:43:59;;;;;;;9.35;1.80;;;8.70;99.90;;;;;;4861920;29;20490;-80
2021/11/08 07:46:25;;;;;;;12.20;2.55;;;8.80;99.90;;;;;;4875574;29;20061;-81
2021/11/08 07:48:52;;;;;;;20.45;3.42;;;8.80;99.90;;;;;;4873366;29;20064;-80
2021/11/08 07:51:19;;;;;;;10.90;2.47;;;8.80;99.90;;;;;;4869866;29;20033;-81
2021/11/08 07:53:47;;;;;;;17.77;2.07;;;8.80;99.90;;;;;;4871599;29;20479;-81
2021/11/08 07:56:13;;;;;;;11.40;1.77;;;8.90;99.90;;;;;;4859967;29;20492;-79
2021/11/08 07:58:40;;;;;;;17.63;2.22;;;8.90;99.90;;;;;;4861874;29;20487;-80
2021/11/08 08:01:06;;;;;;;9.93;2.58;;;9.00;99.90;;;;;;4871970;29;20178;-78
2021/11/08 08:03:32;;;;;;;11.18;2.05;;;9.10;99.90;;;;;;4877708;29;20448;-79
2021/11/08 08:06:00;;;;;;;14.98;2.88;;;9.20;99.90;;;;;;4863846;29;20025;-79
2021/11/08 08:08:26;;;;;;;16.50;2.10;;;9.30;99.90;;;;;;4898353;29;20081;-79
2021/11/08 08:10:53;;;;;;;6.10;1.95;;;9.40;99.90;;;;;;4880279;29;20041;-79
2021/11/08 08:13:26;;;;;;;8.23;1.95;;;9.40;99.90;;;;;;4898079;29;20499;-80
2021/11/08 08:16:00;;;;;;;16.65;2.15;;;9.40;99.90;;;;;;4895937;29;20040;-81
2021/11/08 08:18:27;;;;;;;5.32;1.75;;;9.50;99.90;;;;;;4892315;29;20028;-79
2021/11/08 08:20:54;;;;;;;11.45;2.30;;;9.50;99.90;;;;;;4885804;29;20056;-80
2021/11/08 08:23:21;;;;;;;11.25;1.55;;;9.60;99.90;;;;;;4888693;29;20044;-80
2021/11/08 08:25:47;;;;;;;11.18;2.30;;;9.60;99.90;;;;;;4898576;29;20029;-80
2021/11/08 08:28:13;;;;;;;9.30;1.60;;;9.70;99.90;;;;;;4886136;29;20076;-80
2021/11/08 08:30:38;;;;;;;13.27;2.38;;;9.70;99.90;;;;;;4896342;29;20010;-80
2021/11/08 08:33:07;;;;;;;9.95;2.00;;;9.80;99.90;;;;;;4898113;29;20025;-87
2021/11/08 08:35:43;;;;;;;17.38;3.05;;;9.80;99.90;;;;;;4900004;29;20045;-79
2021/11/08 08:38:13;;;;;;;6.32;1.92;;;9.90;99.90;;;;;;4899825;29;20043;-80
2021/11/08 08:40:40;;;;;;;8.02;1.70;;;9.90;99.90;;;;;;4884673;29;20052;-80
2021/11/08 08:43:06;;;;;;;11.65;1.52;;;10.00;99.90;;;;;;4891162;29;20029;-81
2021/11/08 08:45:34;;;;;;;11.90;1.80;;;10.10;99.90;;;;;;4903757;29;20032;-80
2021/11/08 08:48:00;;;;;;;10.15;2.35;;;10.10;99.90;;;;;;4891589;29;20053;-80
2021/11/08 08:50:27;;;;;;;12.68;2.05;;;10.20;99.90;;;;;;4903630;29;20073;-80
2021/11/08 08:52:52;;;;;;;12.32;1.58;;;10.20;99.90;;;;;;4901207;29;20048;-81
2021/11/08 08:55:18;;;;;;;6.50;2.20;;;10.30;99.90;;;;;;4880658;29;20037;-80
2021/11/08 08:57:44;;;;;;;8.25;1.58;;;10.40;99.90;;;;;;4878993;29;20033;-80
2021/11/08 09:00:12;;;;;;;10.23;1.92;;;10.40;99.90;;;;;;4899694;29;20128;-79
2021/11/08 09:02:38;;;;;;;13.13;1.75;;;10.50;99.90;;;;;;4886083;29;20431;-79
2021/11/08 09:05:04;;;;;;;7.22;1.55;;;10.60;99.90;;;;;;4874003;29;20037;-79
2021/11/08 09:07:30;;;;;;;11.13;1.77;;;10.60;99.90;;;;;;4879715;29;20058;-80
2021/11/08 09:09:56;;;;;;;14.82;2.22;;;10.60;99.90;;;;;;4877570;29;20483;-78
2021/11/08 09:12:22;;;;;;;10.20;3.00;;;10.60;99.90;;;;;;4861060;29;20061;-80
2021/11/08 09:14:48;;;;;;;9.57;2.83;;;10.60;99.90;;;;;;4858935;29;20030;-79
2021/11/08 09:17:14;;;;;;;9.55;1.65;;;10.60;99.90;;;;;;4856326;29;20119;-80
2021/11/08 09:19:40;;;;;;;9.60;1.73;;;10.60;99.90;;;;;;4862930;29;20029;-80
2021/11/08 09:22:08;;;;;;;12.65;1.80;;;10.70;99.90;;;;;;4861700;29;20447;-80
2021/11/08 09:24:34;;;;;;;3.28;1.17;;;10.80;99.90;;;;;;4879082;29;20084;-79
2021/11/08 09:27:01;;;;;;;16.67;2.03;;;10.80;99.90;;;;;;4862714;29;20129;-79
2021/11/08 09:29:27;;;;;;;7.18;2.50;;;10.80;99.90;;;;;;4874011;29;20033;-79
2021/11/08 09:31:53;;;;;;;6.68;1.45;;;10.90;99.90;;;;;;4875636;29;20033;-78
2021/11/08 09:34:22;;;;;;;11.05;1.80;;;10.90;99.90;;;;;;4862599;29;20542;-78
2021/11/08 09:36:48;;;;;;;14.25;1.63;;;10.90;99.90;;;;;;4862147;29;20569;-79
2021/11/08 09:42:03;;;;;;;6.95;1.70;;;11.00;99.90;;;;;;4879315;29;20521;-80
2021/11/08 09:44:30;;;;;;;18.63;3.28;;;11.10;99.90;;;;;;4861766;29;20053;-79
2021/11/08 09:46:57;;;;;;;7.78;2.78;;;11.20;99.90;;;;;;4864289;29;20036;-80
2021/11/08 09:49:24;;;;;;;8.75;2.40;;;11.20;99.90;;;;;;4867010;29;20025;-80
2021/11/08 09:51:51;;;;;;;16.88;2.60;;;11.30;99.90;;;;;;4863737;29;20452;-80
2021/11/08 09:54:19;;;;;;;15.30;2.00;;;11.30;99.90;;;;;;4881507;29;20052;-80
2021/11/08 09:56:48;;;;;;;7.20;1.98;;;11.30;99.90;;;;;;4882774;29;20037;-80
2021/11/08 09:59:16;;;;;;;17.10;2.60;;;11.40;99.90;;;;;;4861750;29;20495;-79
2021/11/08 10:01:49;;;;;;;16.00;1.90;;;11.60;99.90;;;;;;4866021;29;20028;-79
2021/11/08 10:04:15;;;;;;;15.93;2.83;;;11.70;99.90;;;;;;4882426;29;20039;-79
2021/11/08 10:06:41;;;;;;;11.95;2.22;;;11.80;99.90;;;;;;4882542;29;20029;-79
2021/11/08 10:09:09;;;;;;;11.70;2.22;;;11.90;99.90;;;;;;4865315;29;20068;-79
2021/11/08 10:11:37;;;;;;;10.10;2.22;;;12.00;99.90;;;;;;4860661;29;20538;-79
2021/11/08 10:14:05;;;;;;;9.05;1.83;;;11.90;99.90;;;;;;4862446;29;20049;-79
2021/11/08 10:16:35;;;;;;;16.20;2.40;;;12.00;99.90;;;;;;4860993;29;20487;-77
2021/11/08 10:19:04;;;;;;;9.80;2.38;;;12.00;99.90;;;;;;4862441;29;20033;-78
2021/11/08 10:21:34;;;;;;;14.32;3.28;;;12.00;99.90;;;;;;4858976;29;20041;-75
2021/11/08 10:24:05;;;;;;;19.75;2.50;;;12.10;99.90;;;;;;4875791;29;20487;-76
2021/11/08 10:26:34;;;;;;;10.30;2.45;;;12.10;99.90;;;;;;4860947;29;20036;-76
2021/11/08 10:29:07;;;;;;;15.32;2.92;;;12.10;99.90;;;;;;4861853;29;20482;-79
2021/11/08 10:31:37;;;;;;;11.88;2.90;;;12.20;99.90;;;;;;4860799;29;20102;-77
2021/11/08 10:34:07;;;;;;;18.20;2.67;;;12.30;99.90;;;;;;4858333;29;20032;-78
2021/11/08 10:36:33;;;;;;;12.95;2.10;;;12.30;99.90;;;;;;4874588;29;20045;-79
2021/11/08 10:39:01;;;;;;;9.43;3.28;;;12.30;99.90;;;;;;4880967;29;20554;-80
2021/11/08 10:41:33;;;;;;;19.17;2.90;;;12.20;99.90;;;;;;4863779;29;20045;-81
2021/11/08 10:44:08;;;;;;;14.30;2.83;;;12.10;99.90;;;;;;4868498;29;20080;-79
2021/11/08 10:46:42;;;;;;;10.30;2.67;;;12.10;99.90;;;;;;4865966;29;20403;-80
2021/11/08 10:49:12;;;;;;;9.45;2.72;;;12.00;99.90;;;;;;4866568;29;20029;-81
2021/11/08 10:51:39;;;;;;;14.45;1.80;;;12.00;99.90;;;;;;4883318;29;20077;-80
2021/11/08 10:54:09;;;;;;;8.05;2.35;;;12.00;99.90;;;;;;4871585;29;20037;-80
2021/11/08 10:57:01;;;;;;;19.88;3.05;;;12.00;99.90;;;;;;4865289;29;20044;-79
2021/11/08 10:59:31;;;;;;;15.35;3.22;;;12.10;99.90;;;;;;4863835;29;20089;-80
2021/11/08 11:01:59;;;;;;;13.23;2.80;;;12.10;99.90;;;;;;4865881;29;20029;-81
2021/11/08 11:04:45;;;;;;;13.18;2.35;;;12.20;99.90;;;;;;4880330;29;20037;-80
2021/11/08 11:07:29;;;;;;;10.90;2.70;;;12.40;99.90;;;;;;4865847;29;20053;-80
2021/11/08 11:10:19;;;;;;;14.82;2.30;;;12.60;99.90;;;;;;4882232;29;20068;-81
2021/11/08 11:12:48;;;;;;;15.25;2.83;;;12.70;99.90;;;;;;4881484;29;20387;-80
2021/11/08 11:15:23;;;;;;;8.52;2.58;;;12.70;99.90;;;;;;4881116;29;20029;-81
2021/11/08 11:17:55;;;;;;;8.38;2.38;;;12.80;99.90;;;;;;4879524;29;20037;-79
2021/11/08 11:20:25;;;;;;;17.52;3.42;;;12.90;99.90;;;;;;4865789;29;20091;-80
2021/11/08 11:23:05;;;;;;;24.67;3.38;;;13.00;99.90;;;;;;4848425;29;20048;-80
2021/11/08 11:25:33;;;;;;;10.25;3.60;;;13.20;99.90;;;;;;4863240;29;20033;-81
2021/11/08 11:28:01;;;;;;;8.93;2.88;;;13.30;99.90;;;;;;4861199;29;20026;-80
2021/11/08 11:30:34;;;;;;;16.00;2.88;;;13.40;99.90;;;;;;4868080;29;20056;-82
2021/11/08 11:33:20;;;;;;;8.07;2.38;;;13.20;99.90;;;;;;4882013;29;20108;-80
2021/11/08 11:35:52;;;;;;;16.08;2.40;;;13.20;99.90;;;;;;4882306;29;20057;-80
2021/11/08 11:38:29;;;;;;;16.33;2.47;;;13.20;99.90;;;;;;4865031;29;20092;-80
2021/11/08 11:40:59;;;;;;;19.10;2.90;;;13.30;99.90;;;;;;4865829;29;20025;-80
2021/11/08 11:43:29;;;;;;;15.63;2.90;;;13.30;99.90;;;;;;4881242;29;20041;-80
2021/11/08 11:45:55;;;;;;;9.43;3.22;;;13.40;99.90;;;;;;4857273;29;20505;-81
2021/11/08 11:48:26;;;;;;;12.52;3.00;;;13.40;99.90;;;;;;4865662;29;20045;-80
2021/11/08 11:50:52;;;;;;;13.40;2.08;;;13.50;99.90;;;;;;4881828;29;20025;-81
2021/11/08 11:53:18;;;;;;;5.43;2.50;;;13.60;99.90;;;;;;4864769;29;20036;-81
2021/11/08 11:55:46;;;;;;;22.33;3.63;;;13.60;99.90;;;;;;4846413;29;20075;-81
2021/11/08 11:58:13;;;;;;;15.95;2.45;;;13.60;99.90;;;;;;4880473;29;20021;-81
2021/11/08 12:00:41;;;;;;;12.23;3.20;;;13.70;99.90;;;;;;4846648;29;20034;-81
2021/11/08 12:03:07;;;;;;;;;;;13.80;99.90;;;;;;4863844;29;20032;-79
2021/11/08 12:05:34;;;;;;;9.45;1.92;;;14.00;99.90;;;;;;4878793;29;19970;-81
2021/11/08 12:08:04;;;;;;;9.32;1.88;;;14.00;99.90;;;;;;4865008;29;20467;-81
2021/11/08 12:10:30;;;;;;;13.65;1.65;;;13.90;99.90;;;;;;4881324;29;20041;-80
2021/11/08 12:12:56;;;;;;;18.20;2.03;;;13.80;99.90;;;;;;4867455;29;20512;-81
2021/11/08 12:15:32;;;;;;;10.55;1.70;;;13.80;99.90;;;;;;4851386;29;20099;-80
2021/11/08 12:18:06;;;;;;;9.00;1.98;;;13.70;99.90;;;;;;4880206;29;20037;-81
2021/11/08 12:20:40;;;;;;;13.18;2.42;;;13.60;99.90;;;;;;4881917;29;20036;-81
2021/11/08 12:23:13;;;;;;;16.40;2.17;;;13.40;99.90;;;;;;4880100;29;20397;-81
2021/11/08 12:25:43;;;;;;;11.27;2.15;;;13.20;99.90;;;;;;4853211;29;20478;-82
2021/11/08 12:28:13;;;;;;;9.45;2.20;;;13.20;99.90;;;;;;4878454;29;20482;-81
2021/11/08 12:30:42;;;;;;;9.73;1.65;;;13.30;99.90;;;;;;4864714;29;20173;-80
2021/11/08 12:33:21;;;;;;;11.98;1.63;;;13.30;99.90;;;;;;4854948;29;20036;-80
2021/11/08 12:35:48;;;;;;;18.90;3.50;;;13.30;99.90;;;;;;4880762;29;20462;-81
2021/11/08 12:38:43;;;;;;;11.32;2.15;;;13.40;99.90;;;;;;4881496;29;20069;-80
2021/11/08 12:41:20;;;;;;;10.75;1.98;;;13.30;99.90;;;;;;4857049;29;20498;-81
2021/11/08 12:43:56;;;;;;;9.98;2.42;;;13.30;99.90;;;;;;4864666;29;20131;-79
2021/11/08 12:46:26;;;;;;;13.65;2.47;;;13.30;99.90;;;;;;4880735;29;20033;-79
2021/11/08 12:48:52;;;;;;;12.15;2.70;;;13.30;99.90;;;;;;4863716;29;20032;-78
2021/11/08 12:51:21;;;;;;;7.60;2.05;;;13.20;99.90;;;;;;4880897;29;20021;-80
2021/11/08 12:54:04;;;;;;;7.93;1.65;;;13.30;99.90;;;;;;4863617;29;20529;-79
2021/11/08 12:56:35;;;;;;;10.85;3.38;;;13.40;99.90;;;;;;4863863;29;20021;-79
2021/11/08 12:59:12;;;;;;;7.97;1.77;;;13.40;99.90;;;;;;4879582;29;20054;-80
2021/11/08 13:01:41;;;;;;;8.70;2.60;;;13.50;99.90;;;;;;4858774;29;20060;-80
2021/11/08 13:04:10;;;;;;;6.60;1.65;;;13.30;99.90;;;;;;4880535;29;20478;-80
2021/11/08 13:06:36;;;;;;;7.28;1.77;;;13.20;99.90;;;;;;4879851;29;20387;-80
2021/11/08 13:09:25;;;;;;;12.75;1.75;;;13.20;99.90;;;;;;4876640;29;20100;-79
2021/11/08 13:11:56;;;;;;;7.47;1.70;;;13.20;99.90;;;;;;4864097;29;20112;-81
2021/11/08 13:14:24;;;;;;;9.32;1.88;;;13.00;99.90;;;;;;4880379;29;20032;-80
2021/11/08 13:17:01;;;;;;;13.45;2.53;;;12.80;99.90;;;;;;4880012;29;20402;-81
2021/11/08 13:19:28;;;;;;;5.82;1.77;;;12.70;99.90;;;;;;4857191;29;20431;-81
2021/11/08 13:21:54;;;;;;;16.23;1.75;;;12.60;99.90;;;;;;4875499;29;20029;-81
2021/11/08 13:24:20;;;;;;;15.73;2.40;;;12.60;99.90;;;;;;4879980;29;20513;-78
2021/11/08 13:26:48;;;;;;;12.27;2.47;;;12.60;99.90;;;;;;4879695;29;20037;-77
2021/11/08 13:29:20;;;;;;;12.68;1.67;;;12.60;99.90;;;;;;4879461;29;20017;-78
2021/11/08 13:31:47;;;;;;;12.10;1.70;;;12.70;99.90;;;;;;4859876;29;20041;-78
2021/11/08 13:34:16;;;;;;;10.98;1.33;;;12.90;99.90;;;;;;4864500;29;20035;-78
2021/11/08 13:36:44;;;;;;;12.40;2.30;;;12.90;99.90;;;;;;4852409;29;20502;-79
2021/11/08 13:39:10;;;;;;;9.13;1.98;;;13.00;99.90;;;;;;4863677;29;20041;-80
2021/11/08 13:41:37;;;;;;;7.25;1.25;;;13.10;99.90;;;;;;4862901;29;20392;-80
2021/11/08 13:44:09;;;;;;;18.00;2.17;;;13.20;99.90;;;;;;4880062;29;20029;-78
2021/11/08 13:46:47;;;;;;;18.60;2.25;;;13.30;99.90;;;;;;4862038;29;20029;-80
2021/11/08 13:49:15;;;;;;;7.72;1.92;;;13.20;99.90;;;;;;4863609;29;20040;-80
2021/11/08 13:51:54;;;;;;;11.02;1.65;;;13.00;99.90;;;;;;4862015;29;20494;-80
2021/11/08 13:54:36;;;;;;;13.95;1.80;;;12.80;99.90;;;;;;4864047;29;20108;-81
2021/11/08 13:57:07;;;;;;;10.15;1.23;;;12.60;99.90;;;;;;4880342;29;20044;-80
2021/11/08 13:59:36;;;;;;;6.45;1.67;;;12.60;99.90;;;;;;4863026;29;20121;-81
2021/11/08 14:02:11;;;;;;;7.18;2.03;;;12.50;99.90;;;;;;4875412;29;20077;-81
2021/11/08 14:04:42;;;;;;;12.80;2.17;;;12.50;99.90;;;;;;4880272;29;20092;-81
2021/11/08 14:07:09;;;;;;;13.73;2.13;;;12.40;99.90;;;;;;4879334;29;20376;-81
2021/11/08 14:09:37;;;;;;;6.32;1.55;;;12.40;99.90;;;;;;4880367;29;20029;-80
2021/11/08 14:12:05;;;;;;;8.38;1.98;;;12.40;99.90;;;;;;4880089;29;20112;-81
2021/11/08 14:14:37;;;;;;;14.02;1.63;;;12.30;99.90;;;;;;4863002;29;20557;-80
2021/11/08 14:17:31;;;;;;;8.65;2.03;;;12.30;99.90;;;;;;4862422;29;20044;-80
2021/11/08 14:20:00;;;;;;;12.45;1.60;;;12.40;99.90;;;;;;4855681;29;20057;-80
2021/11/08 14:22:29;;;;;;;13.57;2.00;;;12.40;99.90;;;;;;4858668;29;20098;-80
2021/11/08 14:25:00;;;;;;;6.18;1.50;;;12.40;99.90;;;;;;4880070;29;20100;-79
2021/11/08 14:27:31;;;;;;;10.98;1.83;;;12.40;99.90;;;;;;4879519;29;20033;-80
2021/11/08 14:29:57;;;;;;;11.00;2.53;;;12.30;99.90;;;;;;4863162;29;20061;-79
2021/11/08 14:32:28;;;;;;;13.73;2.47;;;12.30;99.90;;;;;;4876896;29;20136;-80